Time;durP1;ratioP1;P1;durP2;ratioP2;P2;SDS_P1;SDS_P2;PMS_P1;PMS_P2;Temp;Humidity;BMP_temperature;BMP_pressure;BME280_temperature;BME280_humidity;BME280_pressure;Samples;Min_cycle;Max_cycle;Signal;HPM_P1;HPM_P2
2023/09/08 00:01:23;;;;;;;9.63;7.80;;;;;;;;;;5038160;28;20489;-63
2023/09/08 00:03:50;;;;;;;12.73;7.90;;;;;;;;;;5037632;28;20414;-63
2023/09/08 00:06:17;;;;;;;9.63;7.10;;;;;;;;;;5037689;28;20411;-64
2023/09/08 00:08:44;;;;;;;10.20;7.68;;;;;;;;;;5032900;28;20894;-64
2023/09/08 00:11:12;;;;;;;8.95;7.13;;;;;;;;;;5036003;28;20418;-64
2023/09/08 00:13:39;;;;;;;8.00;7.20;;;;;;;;;;5035236;28;20423;-64
2023/09/08 00:16:07;;;;;;;10.75;8.40;;;;;;;;;;5033219;28;20428;-65
2023/09/08 00:18:34;;;;;;;10.75;7.82;;;;;;;;;;5020840;28;20503;-63
2023/09/08 00:21:01;;;;;;;10.52;7.97;;;;;;;;;;5028942;28;20904;-63
2023/09/08 00:23:28;;;;;;;11.27;7.90;;;;;;;;;;5014315;28;20490;-66
2023/09/08 00:25:55;;;;;;;12.00;8.57;;;;;;;;;;5034477;28;20476;-66
2023/09/08 00:28:24;;;;;;;9.57;8.57;;;;;;;;;;5017852;28;20420;-65
2023/09/08 00:30:51;;;;;;;9.82;7.90;;;;;;;;;;5035538;28;20446;-65
2023/09/08 00:33:19;;;;;;;9.13;8.23;;;;;;;;;;5038078;28;20436;-65
2023/09/08 00:35:46;;;;;;;8.70;7.77;;;;;;;;;;5033966;28;20453;-66
2023/09/08 00:38:13;;;;;;;9.63;8.57;;;;;;;;;;5037915;28;20413;-65
2023/09/08 00:40:40;;;;;;;10.88;8.95;;;;;;;;;;5035127;28;20824;-65
2023/09/08 00:43:07;;;;;;;10.25;8.55;;;;;;;;;;5041422;28;20413;-65
2023/09/08 00:45:38;;;;;;;9.20;8.00;;;;;;;;;;5035012;28;20785;-65
2023/09/08 00:48:05;;;;;;;9.40;8.18;;;;;;;;;;5040911;28;20417;-65
2023/09/08 00:50:32;;;;;;;10.45;8.38;;;;;;;;;;5033359;28;20418;-65
2023/09/08 00:53:09;;;;;;;10.40;7.63;;;;;;;;;;5039927;28;20431;-65
2023/09/08 00:55:36;;;;;;;9.82;8.23;;;;;;;;;;5032986;28;20403;-65
2023/09/08 00:58:03;;;;;;;9.43;8.27;;;;;;;;;;5039735;28;20426;-65
2023/09/08 01:00:31;;;;;;;10.73;8.68;;;;;;;;;;5035940;28;20411;-65
2023/09/08 01:03:00;;;;;;;10.85;7.80;;;;;;;;;;5038791;28;20426;-66
2023/09/08 01:05:27;;;;;;;8.98;7.65;;;;;;;;;;5036958;28;20425;-65
2023/09/08 01:07:55;;;;;;;9.15;7.38;;;;;;;;;;5038535;28;20491;-64
2023/09/08 01:10:22;;;;;;;12.52;7.22;;;;;;;;;;5033159;28;20413;-64
2023/09/08 01:12:49;;;;;;;8.40;7.35;;;;;;;;;;5037662;28;20426;-64
2023/09/08 01:15:16;;;;;;;10.37;7.70;;;;;;;;;;5036050;28;20826;-64
2023/09/08 01:17:43;;;;;;;10.98;7.35;;;;;;;;;;5036932;28;20411;-64
2023/09/08 01:20:17;;;;;;;8.88;7.20;;;;;;;;;;5034820;28;20767;-64
2023/09/08 01:22:54;;;;;;;9.68;6.57;;;;;;;;;;5036356;28;20407;-66
2023/09/08 01:25:24;;;;;;;9.98;7.07;;;;;;;;;;5031816;28;20417;-65
2023/09/08 01:27:51;;;;;;;9.77;7.10;;;;;;;;;;5037484;28;20418;-65
2023/09/08 01:30:19;;;;;;;8.45;7.25;;;;;;;;;;5034953;28;20416;-66
2023/09/08 01:32:46;;;;;;;10.23;7.30;;;;;;;;;;5035395;28;20431;-65
2023/09/08 01:35:14;;;;;;;11.15;7.05;;;;;;;;;;5039197;28;20413;-65
2023/09/08 01:37:42;;;;;;;10.05;7.22;;;;;;;;;;5035867;28;20485;-66
2023/09/08 01:40:10;;;;;;;8.25;7.10;;;;;;;;;;5038469;28;20950;-66
2023/09/08 01:42:38;;;;;;;8.48;6.90;;;;;;;;;;5035214;28;20411;-66
2023/09/08 01:45:06;;;;;;;9.50;7.68;;;;;;;;;;5037658;28;20923;-65
2023/09/08 01:47:33;;;;;;;10.43;7.60;;;;;;;;;;5033258;28;20461;-67
2023/09/08 01:50:00;;;;;;;9.57;7.73;;;;;;;;;;5024400;28;20631;-65
2023/09/08 01:52:27;;;;;;;9.27;7.75;;;;;;;;;;5025066;28;20415;-65
2023/09/08 01:54:54;;;;;;;8.75;7.75;;;;;;;;;;5035084;28;20914;-65
2023/09/08 01:57:21;;;;;;;11.07;8.07;;;;;;;;;;5035015;28;20411;-65
2023/09/08 01:59:49;;;;;;;9.13;8.02;;;;;;;;;;5039748;28;20417;-64
2023/09/08 02:02:16;;;;;;;8.93;7.97;;;;;;;;;;5034769;28;20419;-65
2023/09/08 02:04:43;;;;;;;10.20;7.90;;;;;;;;;;5034205;28;20410;-65
2023/09/08 02:07:10;;;;;;;10.00;8.33;;;;;;;;;;5034956;28;20422;-65
2023/09/08 02:09:38;;;;;;;9.65;8.15;;;;;;;;;;5031042;28;20419;-66
2023/09/08 02:12:05;;;;;;;9.30;7.75;;;;;;;;;;5034480;28;20411;-68
2023/09/08 02:14:32;;;;;;;9.48;7.47;;;;;;;;;;5036090;28;20489;-67
2023/09/08 02:17:00;;;;;;;10.85;7.90;;;;;;;;;;5033995;28;20422;-68
2023/09/08 02:19:27;;;;;;;10.40;8.40;;;;;;;;;;5035893;28;20820;-68
2023/09/08 02:21:54;;;;;;;11.38;7.50;;;;;;;;;;5034233;28;20472;-68
2023/09/08 02:24:21;;;;;;;8.50;7.35;;;;;;;;;;5038331;28;20883;-67
2023/09/08 02:26:48;;;;;;;9.20;7.90;;;;;;;;;;5032759;28;20422;-68
2023/09/08 02:29:15;;;;;;;8.47;7.60;;;;;;;;;;5038623;28;20709;-68
2023/09/08 02:31:43;;;;;;;9.10;7.95;;;;;;;;;;5033696;28;20455;-68
2023/09/08 02:34:12;;;;;;;8.50;7.60;;;;;;;;;;5038232;28;20429;-68
2023/09/08 02:36:39;;;;;;;8.55;7.60;;;;;;;;;;5032186;28;20419;-68
2023/09/08 02:39:06;;;;;;;10.97;7.40;;;;;;;;;;5037733;28;20507;-68
2023/09/08 02:41:34;;;;;;;8.40;7.20;;;;;;;;;;5031881;28;20488;-68
2023/09/08 02:44:01;;;;;;;9.85;7.72;;;;;;;;;;5036879;28;20502;-68
2023/09/08 02:46:28;;;;;;;9.40;7.30;;;;;;;;;;5031633;28;20476;-67
2023/09/08 02:48:55;;;;;;;8.30;7.38;;;;;;;;;;5035944;28;20955;-68
2023/09/08 02:51:23;;;;;;;9.60;7.43;;;;;;;;;;5034706;28;20409;-68
2023/09/08 02:53:50;;;;;;;8.95;7.30;;;;;;;;;;5039190;28;20434;-68
2023/09/08 02:56:17;;;;;;;9.40;7.13;;;;;;;;;;5034673;28;20436;-68
2023/09/08 02:58:45;;;;;;;11.32;7.40;;;;;;;;;;5035135;28;20419;-68
2023/09/08 03:01:14;;;;;;;9.02;7.13;;;;;;;;;;5034796;28;20460;-68
2023/09/08 03:03:41;;;;;;;7.85;6.60;;;;;;;;;;5033407;28;20443;-68
2023/09/08 03:06:08;;;;;;;9.77;7.40;;;;;;;;;;5033587;28;20464;-68
2023/09/08 03:08:37;;;;;;;10.85;7.30;;;;;;;;;;5034507;28;20419;-67
2023/09/08 03:11:05;;;;;;;7.75;6.95;;;;;;;;;;5032422;28;20417;-68
2023/09/08 03:13:32;;;;;;;8.35;6.95;;;;;;;;;;5038091;28;20451;-65
2023/09/08 03:16:03;;;;;;;7.28;6.57;;;;;;;;;;5039593;28;20410;-65
2023/09/08 03:18:30;;;;;;;8.20;7.20;;;;;;;;;;5033612;28;20828;-64
2023/09/08 03:20:57;;;;;;;8.23;6.80;;;;;;;;;;5035055;28;20419;-65
2023/09/08 03:23:24;;;;;;;9.15;7.28;;;;;;;;;;5034448;28;20411;-65
2023/09/08 03:25:52;;;;;;;9.95;7.32;;;;;;;;;;5030481;28;20893;-65
2023/09/08 03:28:19;;;;;;;9.07;7.00;;;;;;;;;;5034694;28;20431;-65
2023/09/08 03:30:46;;;;;;;8.18;6.85;;;;;;;;;;5036653;28;20410;-65
2023/09/08 03:33:13;;;;;;;9.75;6.65;;;;;;;;;;5034663;28;20756;-65
2023/09/08 03:35:40;;;;;;;7.63;6.63;;;;;;;;;;5032856;28;20468;-65
2023/09/08 03:38:07;;;;;;;8.20;6.47;;;;;;;;;;5034313;28;20446;-64
2023/09/08 03:40:34;;;;;;;8.55;6.60;;;;;;;;;;5036707;28;20488;-65
2023/09/08 03:43:03;;;;;;;9.38;5.97;;;;;;;;;;5033792;28;20441;-65
2023/09/08 03:45:30;;;;;;;7.70;6.10;;;;;;;;;;5039866;28;20441;-64
2023/09/08 03:47:57;;;;;;;9.05;6.43;;;;;;;;;;5033533;28;20869;-65
2023/09/08 03:50:24;;;;;;;8.40;6.60;;;;;;;;;;5035436;28;20405;-64
2023/09/08 03:52:52;;;;;;;8.13;7.10;;;;;;;;;;5032732;28;20438;-64
2023/09/08 03:55:20;;;;;;;8.32;6.53;;;;;;;;;;5032002;28;20441;-64
2023/09/08 03:57:47;;;;;;;7.68;6.60;;;;;;;;;;5036394;28;20411;-65
2023/09/08 04:00:20;;;;;;;9.75;6.50;;;;;;;;;;5037065;28;20424;-65
2023/09/08 04:02:47;;;;;;;10.15;6.68;;;;;;;;;;5032060;28;20447;-65
2023/09/08 04:05:14;;;;;;;8.65;6.68;;;;;;;;;;5033911;28;20467;-64
2023/09/08 04:07:41;;;;;;;8.02;6.70;;;;;;;;;;5031907;28;20422;-65
2023/09/08 04:10:09;;;;;;;8.60;6.85;;;;;;;;;;5037778;28;20477;-64
2023/09/08 04:12:36;;;;;;;9.00;7.05;;;;;;;;;;5031347;28;20411;-65
2023/09/08 04:15:03;;;;;;;9.32;6.90;;;;;;;;;;5033437;28;20434;-65
2023/09/08 04:17:31;;;;;;;10.07;7.75;;;;;;;;;;5034672;28;20893;-65
2023/09/08 04:19:58;;;;;;;13.30;7.93;;;;;;;;;;5035996;28;20907;-64
2023/09/08 04:22:25;;;;;;;9.83;7.50;;;;;;;;;;5031115;28;20467;-65
2023/09/08 04:24:53;;;;;;;10.38;7.60;;;;;;;;;;5034821;28;20403;-65
2023/09/08 04:27:20;;;;;;;8.90;6.85;;;;;;;;;;5031525;28;20974;-65
2023/09/08 04:29:47;;;;;;;10.50;7.35;;;;;;;;;;5036194;28;20512;-65
2023/09/08 04:32:14;;;;;;;8.80;7.23;;;;;;;;;;5038109;28;20409;-65
2023/09/08 04:34:42;;;;;;;9.77;6.70;;;;;;;;;;5038066;28;20431;-65
2023/09/08 04:37:10;;;;;;;9.50;6.57;;;;;;;;;;5037283;28;20466;-65
2023/09/08 04:39:37;;;;;;;11.23;6.75;;;;;;;;;;5038254;28;20825;-64
2023/09/08 04:42:05;;;;;;;8.68;6.18;;;;;;;;;;5035842;28;20415;-65
2023/09/08 04:44:32;;;;;;;9.05;6.07;;;;;;;;;;5038483;28;20407;-65
2023/09/08 04:46:59;;;;;;;8.43;5.78;;;;;;;;;;5029193;28;20844;-64
2023/09/08 04:49:26;;;;;;;7.10;5.83;;;;;;;;;;5024191;28;20416;-65
2023/09/08 04:51:55;;;;;;;8.60;5.80;;;;;;;;;;5029709;28;20410;-64
2023/09/08 04:54:22;;;;;;;7.75;6.03;;;;;;;;;;5028546;28;20990;-65
2023/09/08 04:56:49;;;;;;;8.85;5.68;;;;;;;;;;5019997;28;20476;-64
2023/09/08 04:59:16;;;;;;;6.97;5.70;;;;;;;;;;5033986;28;20419;-65
2023/09/08 05:01:43;;;;;;;8.75;6.00;;;;;;;;;;5037001;28;20451;-64
2023/09/08 05:04:10;;;;;;;6.60;5.70;;;;;;;;;;5041721;28;20518;-65
2023/09/08 05:06:37;;;;;;;7.78;5.60;;;;;;;;;;5036017;28;20415;-65
2023/09/08 05:09:06;;;;;;;7.05;5.43;;;;;;;;;;5037841;28;20411;-65
2023/09/08 05:11:33;;;;;;;7.80;5.63;;;;;;;;;;5035352;28;20440;-65
2023/09/08 05:14:00;;;;;;;10.10;5.50;;;;;;;;;;5037358;28;20843;-65
2023/09/08 05:16:37;;;;;;;6.32;5.40;;;;;;;;;;5035110;28;20410;-64
2023/09/08 05:19:04;;;;;;;6.00;5.13;;;;;;;;;;5036853;28;20411;-65
2023/09/08 05:21:32;;;;;;;7.20;5.10;;;;;;;;;;5039974;28;20413;-64
2023/09/08 05:23:59;;;;;;;7.47;5.50;;;;;;;;;;5036236;28;20407;-65
2023/09/08 05:26:27;;;;;;;9.48;5.75;;;;;;;;;;5040293;28;20421;-65
2023/09/08 05:28:54;;;;;;;6.23;5.53;;;;;;;;;;5037139;28;20477;-65
2023/09/08 05:31:21;;;;;;;6.45;5.50;;;;;;;;;;5034714;28;20806;-65
2023/09/08 05:33:48;;;;;;;8.52;5.57;;;;;;;;;;5034947;28;20449;-65
2023/09/08 05:36:15;;;;;;;7.25;5.68;;;;;;;;;;5037776;28;21058;-65
2023/09/08 05:38:42;;;;;;;7.78;5.65;;;;;;;;;;5034981;28;20476;-65
2023/09/08 05:41:09;;;;;;;6.70;5.47;;;;;;;;;;5036431;28;20419;-65
2023/09/08 05:43:38;;;;;;;8.52;5.75;;;;;;;;;;5030853;28;20426;-65
2023/09/08 05:46:05;;;;;;;8.47;5.50;;;;;;;;;;5040346;28;20423;-65
2023/09/08 05:48:32;;;;;;;7.30;5.40;;;;;;;;;;5034304;28;20495;-65
2023/09/08 05:50:59;;;;;;;8.38;5.43;;;;;;;;;;5038618;28;20759;-65
2023/09/08 05:53:26;;;;;;;7.03;5.30;;;;;;;;;;5034060;28;20469;-64
2023/09/08 05:55:53;;;;;;;5.88;5.18;;;;;;;;;;5037337;28;20901;-65
2023/09/08 05:58:20;;;;;;;6.13;5.15;;;;;;;;;;5032980;28;20403;-64
2023/09/08 06:00:49;;;;;;;6.65;4.95;;;;;;;;;;5039971;28;20415;-65
2023/09/08 06:03:16;;;;;;;6.90;5.35;;;;;;;;;;5034015;28;20781;-65
2023/09/08 06:05:43;;;;;;;7.00;5.55;;;;;;;;;;5036843;28;20469;-64
2023/09/08 06:08:10;;;;;;;7.50;5.57;;;;;;;;;;5037635;28;20423;-65
2023/09/08 06:10:37;;;;;;;7.23;5.33;;;;;;;;;;5035701;28;20465;-65
2023/09/08 06:13:05;;;;;;;6.63;5.30;;;;;;;;;;5032856;28;22599;-65
2023/09/08 06:15:32;;;;;;;8.63;5.80;;;;;;;;;;5039828;28;20439;-66
2023/09/08 06:18:01;;;;;;;6.60;5.30;;;;;;;;;;5024727;28;20426;-68
2023/09/08 06:20:28;;;;;;;8.93;5.80;;;;;;;;;;5022058;28;20417;-70
2023/09/08 06:22:55;;;;;;;6.35;5.18;;;;;;;;;;5020246;28;20424;-68
2023/09/08 06:25:22;;;;;;;6.00;5.40;;;;;;;;;;5018211;28;20426;-65
2023/09/08 06:27:49;;;;;;;7.63;5.27;;;;;;;;;;5028000;28;20423;-65
2023/09/08 06:30:18;;;;;;;7.93;5.45;;;;;;;;;;5032969;28;20429;-65
2023/09/08 06:32:45;;;;;;;6.43;5.22;;;;;;;;;;5025627;28;20913;-67
2023/09/08 06:35:13;;;;;;;6.97;5.25;;;;;;;;;;5021645;28;20432;-65
2023/09/08 06:37:40;;;;;;;5.95;5.35;;;;;;;;;;5024952;28;20411;-66
2023/09/08 06:40:08;;;;;;;6.85;5.20;;;;;;;;;;5015505;28;20770;-66
2023/09/08 06:42:35;;;;;;;6.55;5.53;;;;;;;;;;5018893;28;20427;-67
2023/09/08 06:45:02;;;;;;;8.23;5.50;;;;;;;;;;5031905;28;20407;-69
2023/09/08 06:47:29;;;;;;;6.85;5.38;;;;;;;;;;5024885;28;21004;-66
2023/09/08 06:49:56;;;;;;;5.88;5.18;;;;;;;;;;5036496;28;20422;-66
2023/09/08 06:52:24;;;;;;;7.82;5.50;;;;;;;;;;5033258;28;20417;-68
2023/09/08 06:54:51;;;;;;;6.85;5.30;;;;;;;;;;5034900;28;20423;-65
2023/09/08 06:57:20;;;;;;;8.15;5.55;;;;;;;;;;5028170;28;20414;-66
2023/09/08 06:59:47;;;;;;;6.95;5.00;;;;;;;;;;5023751;28;20425;-67
2023/09/08 07:02:14;;;;;;;6.45;5.30;;;;;;;;;;5024953;28;20416;-67
2023/09/08 07:04:41;;;;;;;7.07;5.28;;;;;;;;;;5022514;28;20443;-67
2023/09/08 07:07:09;;;;;;;6.85;4.90;;;;;;;;;;5023982;28;20847;-67
2023/09/08 07:09:37;;;;;;;6.10;5.00;;;;;;;;;;5037930;28;20420;-66
2023/09/08 07:12:04;;;;;;;8.30;5.22;;;;;;;;;;5034374;28;20869;-65
2023/09/08 07:14:32;;;;;;;6.15;5.20;;;;;;;;;;5033410;28;20492;-65
2023/09/08 07:16:59;;;;;;;5.70;5.10;;;;;;;;;;5032609;28;20506;-66
2023/09/08 07:19:27;;;;;;;7.93;5.03;;;;;;;;;;5034094;28;20894;-66
2023/09/08 07:21:54;;;;;;;7.13;5.10;;;;;;;;;;5032986;28;20423;-67
2023/09/08 07:24:21;;;;;;;6.55;4.80;;;;;;;;;;5033974;28;20879;-65
2023/09/08 07:26:50;;;;;;;6.47;5.00;;;;;;;;;;5040154;28;20425;-69
2023/09/08 07:29:17;;;;;;;8.77;4.93;;;;;;;;;;5033571;28;20426;-68
2023/09/08 07:31:44;;;;;;;7.82;4.70;;;;;;;;;;5037102;28;20455;-69
2023/09/08 07:34:11;;;;;;;6.27;4.53;;;;;;;;;;5031800;28;20425;-68
2023/09/08 07:36:38;;;;;;;7.97;4.90;;;;;;;;;;5034618;28;20450;-70
2023/09/08 07:39:05;;;;;;;7.28;4.80;;;;;;;;;;5033146;28;20445;-68
2023/09/08 07:41:32;;;;;;;7.25;4.97;;;;;;;;;;5035412;28;20811;-69
2023/09/08 07:44:01;;;;;;;6.43;5.05;;;;;;;;;;5031836;28;20415;-68
2023/09/08 07:46:28;;;;;;;6.28;4.70;;;;;;;;;;5034833;28;20409;-69
2023/09/08 07:48:55;;;;;;;7.80;4.53;;;;;;;;;;5032068;28;20449;-69
2023/09/08 07:51:22;;;;;;;8.10;5.13;;;;;;;;;;5033841;28;20811;-68
2023/09/08 07:53:49;;;;;;;9.50;4.78;;;;;;;;;;5030561;28;20415;-69
2023/09/08 07:56:16;;;;;;;8.00;4.70;;;;;;;;;;5038589;28;20913;-69
2023/09/08 07:58:43;;;;;;;5.70;4.30;;;;;;;;;;5032338;28;20415;-70
2023/09/08 08:01:11;;;;;;;6.40;4.72;;;;;;;;;;5036923;28;20873;-67
2023/09/08 08:03:38;;;;;;;8.05;4.63;;;;;;;;;;5028439;28;20457;-63
2023/09/08 08:06:06;;;;;;;6.20;4.40;;;;;;;;;;5033232;28;20896;-66
2023/09/08 08:08:38;;;;;;;5.95;4.65;;;;;;;;;;5034893;28;20411;-67
2023/09/08 08:11:05;;;;;;;6.72;4.93;;;;;;;;;;5038217;28;20422;-66
2023/09/08 08:13:32;;;;;;;6.87;4.53;;;;;;;;;;5034283;28;20410;-67
2023/09/08 08:15:59;;;;;;;8.20;4.57;;;;;;;;;;5037919;28;20427;-69
2023/09/08 08:18:27;;;;;;;8.40;4.32;;;;;;;;;;5038999;28;20482;-69
2023/09/08 08:20:54;;;;;;;6.18;4.78;;;;;;;;;;5035917;28;20415;-69
2023/09/08 08:23:21;;;;;;;7.43;4.82;;;;;;;;;;5032723;28;20415;-68
2023/09/08 08:25:48;;;;;;;6.88;4.65;;;;;;;;;;5037821;28;20411;-67
2023/09/08 08:28:15;;;;;;;5.75;4.50;;;;;;;;;;5036515;28;20419;-66
2023/09/08 08:30:42;;;;;;;7.20;4.45;;;;;;;;;;5040493;28;20525;-68
2023/09/08 08:33:10;;;;;;;6.55;4.60;;;;;;;;;;5038357;28;20461;-68
2023/09/08 08:35:39;;;;;;;6.28;4.60;;;;;;;;;;5038212;28;20840;-67
2023/09/08 08:38:06;;;;;;;6.60;4.43;;;;;;;;;;5031370;28;20422;-67
2023/09/08 08:40:34;;;;;;;5.55;4.38;;;;;;;;;;5038442;28;20422;-67
2023/09/08 08:43:01;;;;;;;6.57;4.75;;;;;;;;;;5032397;28;20422;-67
2023/09/08 08:45:28;;;;;;;6.45;4.35;;;;;;;;;;5038580;28;20919;-67
2023/09/08 08:47:55;;;;;;;5.55;4.40;;;;;;;;;;5035718;28;20419;-67
2023/09/08 08:50:22;;;;;;;5.93;4.40;;;;;;;;;;5038022;28;20409;-64
2023/09/08 08:52:50;;;;;;;6.77;4.77;;;;;;;;;;5036024;28;20411;-64
2023/09/08 08:55:18;;;;;;;7.40;4.20;;;;;;;;;;5037074;28;20438;-64
2023/09/08 08:57:45;;;;;;;5.97;4.40;;;;;;;;;;5035720;28;20817;-65
2023/09/08 09:00:15;;;;;;;6.55;4.32;;;;;;;;;;5039694;28;20415;-69
2023/09/08 09:02:43;;;;;;;5.85;4.70;;;;;;;;;;5034625;28;20420;-69
2023/09/08 09:05:10;;;;;;;7.85;4.70;;;;;;;;;;5036587;28;20414;-70
2023/09/08 09:07:38;;;;;;;5.75;4.80;;;;;;;;;;5034567;28;20425;-70
2023/09/08 09:10:08;;;;;;;5.72;4.30;;;;;;;;;;5034180;28;20909;-70
2023/09/08 09:12:35;;;;;;;8.90;4.40;;;;;;;;;;5023855;28;20423;-70
2023/09/08 09:15:04;;;;;;;7.00;4.43;;;;;;;;;;5022554;28;20781;-67
2023/09/08 09:17:31;;;;;;;6.35;4.40;;;;;;;;;;5020525;28;20411;-66
2023/09/08 09:20:13;;;;;;;8.10;4.50;;;;;;;;;;5021372;28;20990;-67
2023/09/08 09:22:40;;;;;;;6.07;4.20;;;;;;;;;;5017124;28;20416;-69
2023/09/08 09:25:09;;;;;;;6.45;4.60;;;;;;;;;;5023735;28;20415;-68
2023/09/08 09:27:37;;;;;;;6.10;4.32;;;;;;;;;;5034458;28;20420;-67
2023/09/08 09:30:05;;;;;;;5.57;4.45;;;;;;;;;;5036974;28;20426;-66
2023/09/08 09:32:32;;;;;;;6.90;4.32;;;;;;;;;;5036786;28;20784;-65
2023/09/08 09:35:00;;;;;;;4.78;4.07;;;;;;;;;;5029996;28;20415;-67
2023/09/08 09:37:29;;;;;;;6.00;4.20;;;;;;;;;;5033258;28;20413;-66
2023/09/08 09:39:56;;;;;;;8.40;4.28;;;;;;;;;;5033595;28;20700;-66
2023/09/08 09:42:24;;;;;;;7.37;4.60;;;;;;;;;;5035901;28;20414;-66
2023/09/08 09:44:52;;;;;;;9.15;4.78;;;;;;;;;;5036600;28;20426;-67
2023/09/08 09:47:20;;;;;;;9.48;4.63;;;;;;;;;;5050528;28;20413;-66
2023/09/08 09:49:47;;;;;;;7.40;4.63;;;;;;;;;;5039491;28;20413;-66
2023/09/08 09:52:15;;;;;;;11.68;5.50;;;;;;;;;;5039442;28;20419;-66
2023/09/08 09:54:42;;;;;;;13.60;5.13;;;;;;;;;;5032148;28;20415;-66
2023/09/08 09:57:10;;;;;;;10.80;4.65;;;;;;;;;;5037367;28;20855;-66
2023/09/08 09:59:39;;;;;;;10.17;5.03;;;;;;;;;;5037469;28;20414;-65
2023/09/08 10:02:06;;;;;;;5.22;4.45;;;;;;;;;;5038826;28;20411;-66
2023/09/08 10:04:34;;;;;;;6.93;4.28;;;;;;;;;;5039200;28;20467;-65
2023/09/08 10:07:01;;;;;;;8.85;4.90;;;;;;;;;;5035778;28;20411;-66
2023/09/08 10:09:28;;;;;;;9.07;5.85;;;;;;;;;;5034037;28;20410;-65
2023/09/08 10:11:56;;;;;;;11.40;4.82;;;;;;;;;;5034760;28;20420;-65
2023/09/08 10:14:23;;;;;;;6.85;4.53;;;;;;;;;;5034156;28;20876;-65
2023/09/08 10:16:52;;;;;;;5.50;4.40;;;;;;;;;;5034954;28;20481;-66
2023/09/08 10:19:19;;;;;;;6.78;4.40;;;;;;;;;;5033760;28;20416;-65
2023/09/08 10:21:47;;;;;;;5.13;4.07;;;;;;;;;;5038656;28;20824;-64
2023/09/08 10:24:16;;;;;;;6.00;4.33;;;;;;;;;;5031907;28;20411;-65
2023/09/08 10:26:45;;;;;;;4.97;4.05;;;;;;;;;;5035091;28;20407;-65
2023/09/08 10:29:13;;;;;;;5.45;4.40;;;;;;;;;;5036220;28;20422;-65
2023/09/08 10:31:40;;;;;;;5.47;4.20;;;;;;;;;;5026360;28;20422;-65
2023/09/08 10:34:09;;;;;;;5.15;4.18;;;;;;;;;;5035215;28;20441;-65
2023/09/08 10:36:38;;;;;;;4.78;4.15;;;;;;;;;;5035188;28;20430;-65
2023/09/08 10:39:24;;;;;;;4.65;4.25;;;;;;;;;;5028322;28;22243;-65
2023/09/08 10:41:51;;;;;;;4.47;3.90;;;;;;;;;;5033090;28;20411;-68
2023/09/08 10:44:18;;;;;;;5.57;4.22;;;;;;;;;;5036680;28;20929;-66
2023/09/08 10:46:46;;;;;;;5.78;4.10;;;;;;;;;;5029197;28;20411;-66
2023/09/08 10:49:14;;;;;;;7.10;4.40;;;;;;;;;;5039050;28;20467;-67
2023/09/08 10:51:41;;;;;;;6.07;4.22;;;;;;;;;;5031403;28;20461;-67
2023/09/08 10:54:08;;;;;;;5.53;4.53;;;;;;;;;;5045123;28;20436;-65
2023/09/08 10:56:50;;;;;;;5.10;4.10;;;;;;;;;;5032245;28;20496;-65
2023/09/08 10:59:17;;;;;;;5.50;4.22;;;;;;;;;;5036272;28;20836;-65
2023/09/08 11:01:44;;;;;;;4.93;4.25;;;;;;;;;;5034088;28;21063;-65
2023/09/08 11:04:13;;;;;;;5.65;4.07;;;;;;;;;;5036742;28;20417;-63
2023/09/08 11:06:41;;;;;;;6.82;4.35;;;;;;;;;;5031448;28;20839;-64
2023/09/08 11:09:09;;;;;;;7.47;4.38;;;;;;;;;;5035772;28;20419;-63
2023/09/08 11:11:37;;;;;;;5.80;4.13;;;;;;;;;;5031256;28;20481;-65
2023/09/08 11:14:04;;;;;;;6.15;4.50;;;;;;;;;;5034288;28;21116;-65
2023/09/08 11:16:33;;;;;;;5.30;4.45;;;;;;;;;;5034058;28;20535;-65
2023/09/08 11:19:01;;;;;;;4.85;4.40;;;;;;;;;;5038859;28;20425;-66
2023/09/08 11:21:34;;;;;;;5.72;4.28;;;;;;;;;;5033643;28;20416;-67
2023/09/08 11:24:04;;;;;;;5.07;4.10;;;;;;;;;;5037462;28;20553;-67
2023/09/08 11:26:34;;;;;;;6.03;4.40;;;;;;;;;;5032493;28;20753;-67
2023/09/08 11:29:01;;;;;;;6.93;4.40;;;;;;;;;;5034193;28;20472;-64
2023/09/08 11:31:28;;;;;;;7.00;4.15;;;;;;;;;;5036626;28;20413;-66
2023/09/08 11:33:56;;;;;;;4.90;4.30;;;;;;;;;;5038596;28;20925;-67
2023/09/08 11:36:23;;;;;;;5.53;4.45;;;;;;;;;;5032649;28;20436;-67
2023/09/08 11:38:50;;;;;;;5.65;4.20;;;;;;;;;;5035949;28;20433;-68
2023/09/08 11:41:23;;;;;;;4.78;4.20;;;;;;;;;;5041508;28;20425;-64
2023/09/08 11:43:53;;;;;;;5.40;4.00;;;;;;;;;;5039861;28;20419;-68
2023/09/08 11:46:20;;;;;;;6.38;4.25;;;;;;;;;;5042541;28;20777;-63
2023/09/08 11:48:47;;;;;;;4.88;3.97;;;;;;;;;;5040072;28;20474;-64
2023/09/08 11:51:14;;;;;;;4.78;4.28;;;;;;;;;;5040960;28;20460;-65
2023/09/08 11:53:42;;;;;;;6.65;4.40;;;;;;;;;;5039836;28;20416;-64
2023/09/08 11:56:09;;;;;;;4.93;4.28;;;;;;;;;;5040165;28;20546;-65
2023/09/08 11:58:38;;;;;;;6.23;5.00;;;;;;;;;;5040498;28;20419;-70
2023/09/08 12:01:06;;;;;;;5.85;4.65;;;;;;;;;;5037078;28;20843;-68
2023/09/08 12:03:33;;;;;;;6.05;4.35;;;;;;;;;;5040063;28;20505;-69
2023/09/08 12:06:02;;;;;;;7.07;4.72;;;;;;;;;;5038231;28;20403;-68
2023/09/08 12:08:29;;;;;;;7.25;4.47;;;;;;;;;;5042639;28;20453;-68
2023/09/08 12:10:56;;;;;;;5.30;4.72;;;;;;;;;;5047052;28;20413;-67
2023/09/08 12:13:23;;;;;;;6.22;4.75;;;;;;;;;;5041503;28;20450;-71
2023/09/08 12:15:52;;;;;;;5.72;4.63;;;;;;;;;;5026131;28;20419;-67
2023/09/08 12:18:19;;;;;;;6.07;4.83;;;;;;;;;;5022893;28;20424;-66
2023/09/08 12:20:46;;;;;;;5.80;4.20;;;;;;;;;;5020666;28;20471;-64
2023/09/08 12:23:17;;;;;;;4.65;4.20;;;;;;;;;;5023971;28;20474;-65
2023/09/08 12:25:46;;;;;;;4.60;4.10;;;;;;;;;;5029781;28;20424;-64
2023/09/08 12:28:13;;;;;;;5.45;4.30;;;;;;;;;;5032260;28;20427;-65
2023/09/08 12:30:40;;;;;;;4.30;3.90;;;;;;;;;;5033655;28;20427;-65
2023/09/08 12:33:09;;;;;;;4.95;4.10;;;;;;;;;;5034990;28;20411;-65
2023/09/08 12:35:36;;;;;;;6.10;4.60;;;;;;;;;;5021846;28;20492;-64
2023/09/08 12:38:05;;;;;;;5.80;4.55;;;;;;;;;;5024737;28;20477;-63
2023/09/08 12:40:34;;;;;;;6.63;4.05;;;;;;;;;;5022059;28;20439;-63
2023/09/08 12:43:01;;;;;;;6.20;4.30;;;;;;;;;;5024361;28;20471;-63
2023/09/08 12:45:29;;;;;;;5.63;4.30;;;;;;;;;;5028529;28;20979;-64
2023/09/08 12:47:57;;;;;;;5.03;4.20;;;;;;;;;;5024272;28;20415;-67
2023/09/08 12:50:26;;;;;;;4.93;4.07;;;;;;;;;;5019182;28;20893;-64
2023/09/08 12:52:53;;;;;;;4.85;4.15;;;;;;;;;;5021520;28;20409;-63
2023/09/08 12:55:20;;;;;;;5.07;4.20;;;;;;;;;;5019112;28;20829;-64
2023/09/08 12:57:48;;;;;;;5.90;4.10;;;;;;;;;;5022744;28;20431;-64
2023/09/08 13:00:15;;;;;;;5.72;4.28;;;;;;;;;;5026477;28;20419;-63
2023/09/08 13:02:42;;;;;;;5.88;3.97;;;;;;;;;;5035430;28;20425;-64
2023/09/08 13:05:09;;;;;;;5.65;4.20;;;;;;;;;;5019580;28;20502;-64
2023/09/08 13:07:37;;;;;;;9.00;4.45;;;;;;;;;;5020730;28;20415;-64
2023/09/08 13:10:05;;;;;;;4.70;4.00;;;;;;;;;;5019390;28;20894;-64
2023/09/08 13:12:32;;;;;;;5.65;4.20;;;;;;;;;;5020076;28;20420;-64
2023/09/08 13:15:00;;;;;;;6.10;4.22;;;;;;;;;;5017658;28;20507;-64
2023/09/08 13:17:27;;;;;;;5.40;4.10;;;;;;;;;;5025993;28;20441;-64
2023/09/08 13:19:54;;;;;;;5.28;4.20;;;;;;;;;;5033827;28;20824;-63
2023/09/08 13:22:21;;;;;;;5.30;4.30;;;;;;;;;;5034097;28;20419;-64
2023/09/08 13:24:50;;;;;;;5.25;4.18;;;;;;;;;;5031123;28;20420;-64
2023/09/08 13:27:18;;;;;;;4.43;3.88;;;;;;;;;;5037240;28;20410;-63
2023/09/08 13:29:45;;;;;;;5.05;4.20;;;;;;;;;;5038837;28;20891;-63
2023/09/08 13:32:12;;;;;;;7.07;4.22;;;;;;;;;;5036232;28;20418;-64
2023/09/08 13:34:39;;;;;;;4.82;4.07;;;;;;;;;;5044122;28;20415;-63
2023/09/08 13:37:06;;;;;;;4.95;4.35;;;;;;;;;;5034859;28;20893;-64
2023/09/08 13:39:33;;;;;;;4.70;4.00;;;;;;;;;;5028850;28;20459;-64
2023/09/08 13:42:02;;;;;;;5.25;4.25;;;;;;;;;;5034050;28;20970;-66
2023/09/08 13:44:30;;;;;;;5.45;4.30;;;;;;;;;;5036000;28;20466;-63
2023/09/08 13:46:57;;;;;;;5.07;4.30;;;;;;;;;;5033807;28;20407;-65
2023/09/08 13:49:24;;;;;;;4.88;4.20;;;;;;;;;;5034722;28;20411;-64
2023/09/08 13:51:53;;;;;;;6.53;4.68;;;;;;;;;;5037560;28;20812;-64
2023/09/08 13:54:20;;;;;;;5.75;4.47;;;;;;;;;;5035622;28;20418;-64
2023/09/08 13:56:58;;;;;;;7.68;4.60;;;;;;;;;;5036948;28;20425;-65
2023/09/08 13:59:27;;;;;;;4.68;4.18;;;;;;;;;;5034068;28;20497;-64
2023/09/08 14:01:54;;;;;;;5.97;4.53;;;;;;;;;;5037796;28;20522;-64
2023/09/08 14:04:21;;;;;;;6.50;4.28;;;;;;;;;;5032408;28;20438;-64
2023/09/08 14:06:48;;;;;;;5.75;4.53;;;;;;;;;;5036090;28;20469;-64
2023/09/08 14:09:15;;;;;;;5.20;4.40;;;;;;;;;;5033247;28;20847;-64
2023/09/08 14:11:42;;;;;;;5.05;4.32;;;;;;;;;;5035557;28;20459;-64
2023/09/08 14:14:09;;;;;;;5.95;4.60;;;;;;;;;;5035026;28;20410;-67
2023/09/08 14:16:38;;;;;;;5.13;4.55;;;;;;;;;;5039495;28;20424;-64
2023/09/08 14:19:05;;;;;;;8.40;4.78;;;;;;;;;;5032905;28;20476;-64
2023/09/08 14:21:33;;;;;;;5.77;4.50;;;;;;;;;;5039087;28;20826;-64
2023/09/08 14:24:00;;;;;;;5.43;4.45;;;;;;;;;;5032839;28;20498;-64
2023/09/08 14:26:27;;;;;;;5.32;4.60;;;;;;;;;;5038921;28;20426;-64
2023/09/08 14:28:54;;;;;;;6.63;4.30;;;;;;;;;;5032576;28;20419;-64
2023/09/08 14:31:21;;;;;;;6.95;4.72;;;;;;;;;;5037844;28;20838;-64
2023/09/08 14:33:49;;;;;;;6.38;4.47;;;;;;;;;;5029328;28;20418;-64
2023/09/08 14:36:19;;;;;;;6.20;4.47;;;;;;;;;;5036863;28;20480;-64
2023/09/08 14:38:46;;;;;;;5.30;4.50;;;;;;;;;;5028103;28;20430;-64
2023/09/08 14:41:14;;;;;;;5.80;4.80;;;;;;;;;;5035902;28;20411;-64
2023/09/08 14:43:41;;;;;;;6.38;5.00;;;;;;;;;;5035219;28;20423;-64